createdAt,value
2022-09-14T00:05:02.695Z,41.2
2022-09-14T00:10:21.477Z,41.5
2022-09-14T00:15:39.658Z,42.2
2022-09-14T00:20:58.416Z,41.6
2022-09-14T00:26:16.895Z,41.2
2022-09-14T00:31:35.492Z,41.7
2022-09-14T00:36:53.995Z,41.9
2022-09-14T00:42:12.219Z,41.4
2022-09-14T00:47:30.684Z,42.2
2022-09-14T00:52:48.887Z,41.4
2022-09-14T00:58:07.758Z,42.8
2022-09-14T01:03:26.211Z,42.6
2022-09-14T01:08:44.961Z,41.7
2022-09-14T01:14:03.363Z,42.2
2022-09-14T01:19:21.617Z,41.4
2022-09-14T01:24:39.837Z,41.3
2022-09-14T01:29:58.372Z,41.4
2022-09-14T01:35:16.647Z,41.9
2022-09-14T01:40:34.974Z,42.1
2022-09-14T01:45:53.070Z,41.1
2022-09-14T01:51:11.015Z,41.2
2022-09-14T01:56:29.510Z,41.6
2022-09-14T02:01:52.713Z,41.6
2022-09-14T02:07:10.720Z,42.1
2022-09-14T02:12:29.207Z,41
2022-09-14T02:17:47.965Z,41.1
2022-09-14T02:23:06.429Z,40.8
2022-09-14T02:28:24.377Z,40.6
2022-09-14T02:33:42.426Z,40.6
2022-09-14T02:39:00.669Z,41
2022-09-14T02:44:18.881Z,41.9
2022-09-14T02:49:37.388Z,40.6
2022-09-14T02:54:55.858Z,40.4
2022-09-14T03:00:13.792Z,40.6
2022-09-14T03:05:32.573Z,40.5
2022-09-14T03:10:51.049Z,40.9
2022-09-14T03:16:09.493Z,41.3
2022-09-14T03:21:27.799Z,41.2
2022-09-14T03:26:46.264Z,40.6
2022-09-14T03:32:04.749Z,40.2
2022-09-14T03:37:23.555Z,41
2022-09-14T03:42:42.009Z,40
2022-09-14T03:48:00.784Z,40.7
2022-09-14T03:53:19.658Z,40.3
2022-09-14T03:58:37.861Z,40.7
2022-09-14T04:03:56.334Z,40.3
2022-09-14T04:09:14.562Z,40.8
2022-09-14T04:14:32.749Z,40.3
2022-09-14T04:19:51.507Z,40.5
2022-09-14T04:25:10.218Z,40.5
2022-09-14T04:30:28.680Z,40.3
2022-09-14T04:35:47.164Z,40.2
2022-09-14T04:41:05.750Z,41.5
2022-09-14T04:46:23.962Z,41.7
2022-09-14T04:51:41.931Z,41.1
2022-09-14T04:57:00.462Z,38.1
2022-09-14T05:02:19.275Z,37.8
2022-09-14T05:07:37.902Z,37.2
2022-09-14T05:12:56.473Z,36.8
2022-09-14T05:18:14.943Z,37.4
2022-09-14T05:23:33.699Z,36.5
2022-09-14T05:28:52.049Z,37.6
2022-09-14T05:33:55.162Z,37.2
2022-09-14T05:39:13.906Z,37.3
2022-09-14T05:44:32.539Z,37.2
2022-09-14T05:49:51.268Z,36.7
2022-09-14T05:55:09.756Z,37.1
2022-09-14T06:00:28.595Z,38.4
2022-09-14T06:05:47.680Z,38.2
2022-09-14T06:11:05.928Z,37.9
2022-09-14T06:16:24.485Z,37.7
2022-09-14T06:21:42.933Z,36.8
2022-09-14T06:27:01.418Z,36.9
2022-09-14T06:32:19.941Z,37.6
2022-09-14T06:37:38.670Z,37.3
2022-09-14T06:42:57.443Z,36.5
2022-09-14T06:48:16.387Z,37.2
2022-09-14T06:53:35.123Z,37.3
2022-09-14T06:58:53.875Z,37.3
2022-09-14T07:04:12.394Z,36.6
2022-09-14T07:09:15.225Z,37.8
2022-09-14T07:14:33.705Z,38.1
2022-09-14T07:19:52.100Z,37.3
2022-09-14T07:25:10.261Z,37.8
2022-09-14T07:30:28.929Z,38.1
2022-09-14T07:35:47.664Z,36.5
2022-09-14T07:41:05.562Z,37
2022-09-14T07:46:24.211Z,37.9
2022-09-14T07:51:43.147Z,37.3
2022-09-14T07:57:01.024Z,37.5
2022-09-14T08:02:19.605Z,37.6
2022-09-14T08:07:37.814Z,38.4
2022-09-14T08:12:40.647Z,37.9
2022-09-14T08:17:58.852Z,37.6
2022-09-14T08:23:17.649Z,38
2022-09-14T08:28:36.892Z,37.7
2022-09-14T08:33:55.370Z,38.1
2022-09-14T08:39:14.193Z,37.4
2022-09-14T08:44:32.036Z,38.2
2022-09-14T08:49:49.918Z,38.2
2022-09-14T08:55:08.135Z,38.6
2022-09-14T09:00:26.274Z,37.8
2022-09-14T09:05:44.151Z,38.7
2022-09-14T09:11:02.358Z,38.3
2022-09-14T09:16:20.699Z,38.1
2022-09-14T09:21:39.168Z,38.8
2022-09-14T09:26:57.625Z,38.6
2022-09-14T09:32:16.158Z,37.7
2022-09-14T09:37:34.838Z,37.8
2022-09-14T09:42:52.858Z,38.4
2022-09-14T09:48:11.588Z,37.5
2022-09-14T09:53:29.792Z,37.8
2022-09-14T09:58:48.162Z,37.8
2022-09-14T10:04:06.616Z,38.1
2022-09-14T10:09:24.820Z,38.5
2022-09-14T10:14:43.579Z,38.1
2022-09-14T10:20:02.046Z,37.2
2022-09-14T10:25:20.501Z,38.4
2022-09-14T10:30:39.371Z,37.6
2022-09-14T10:35:57.287Z,37.7
2022-09-14T10:41:15.755Z,37.7
2022-09-14T10:46:34.417Z,37.7
2022-09-14T10:51:37.605Z,37.3
2022-09-14T10:56:55.798Z,37.3
2022-09-14T11:02:14.672Z,37.7
2022-09-14T11:07:33.541Z,37.9
2022-09-14T11:12:51.477Z,38.3
2022-09-14T11:18:09.944Z,37.5
2022-09-14T11:23:28.124Z,37.6
2022-09-14T11:28:46.317Z,37.6
2022-09-14T11:34:04.610Z,36
2022-09-14T11:39:23.354Z,35.5
2022-09-14T11:44:41.531Z,33.9
2022-09-14T11:49:59.898Z,33.2
2022-09-14T11:55:18.055Z,32.7
2022-09-14T12:00:36.811Z,33.4
2022-09-14T12:05:55.240Z,33.4
2022-09-14T12:11:13.955Z,33.1
2022-09-14T12:16:35.490Z,33.5
2022-09-14T12:21:54.042Z,34.1
2022-09-14T12:27:12.840Z,33.3
2022-09-14T12:32:31.607Z,32.1
2022-09-14T12:37:50.127Z,32.8
2022-09-14T12:42:52.691Z,32.7
2022-09-14T12:48:11.039Z,33.1
2022-09-14T12:53:29.931Z,33.5
2022-09-14T12:58:48.433Z,33.9
2022-09-14T13:04:06.615Z,33.9
2022-09-14T13:09:25.676Z,34.5
2022-09-14T13:14:43.818Z,34
2022-09-14T13:20:02.582Z,34.7
2022-09-14T13:25:05.219Z,34.5
2022-09-14T13:30:23.424Z,35
2022-09-14T13:35:41.904Z,35.4
2022-09-14T13:41:00.036Z,34.7
2022-09-14T13:46:21.752Z,35.7
2022-09-14T13:51:39.638Z,35.7
2022-09-14T13:56:58.470Z,35.1
2022-09-14T14:02:17.028Z,36.3
2022-09-14T14:07:35.480Z,36.3
2022-09-14T14:12:54.078Z,36.1
2022-09-14T14:18:12.511Z,35.8
2022-09-14T14:23:30.992Z,36.3
2022-09-14T14:28:50.124Z,36
2022-09-14T14:34:08.712Z,36.6
2022-09-14T14:39:27.148Z,36
2022-09-14T14:44:45.903Z,37
2022-09-14T14:50:04.589Z,37.1
2022-09-14T14:55:23.327Z,37.1
2022-09-14T15:00:41.959Z,36.5
2022-09-14T15:06:00.508Z,36.5
2022-09-14T15:11:18.994Z,36.4
2022-09-14T15:16:38.114Z,36.7
2022-09-14T15:22:02.217Z,38.1
2022-09-14T15:27:20.414Z,37.2
2022-09-14T15:32:38.820Z,37.6
2022-09-14T15:37:56.937Z,37.2
2022-09-14T15:43:15.403Z,36.8
2022-09-14T15:48:33.897Z,36.7
2022-09-14T15:53:52.356Z,37.6
2022-09-14T15:59:11.114Z,36.8
2022-09-14T16:04:29.492Z,36.5
2022-09-14T16:09:47.674Z,36.5
2022-09-14T16:15:05.864Z,37.2
2022-09-14T16:20:24.920Z,36.9
2022-09-14T16:25:43.354Z,37.1
2022-09-14T16:31:01.834Z,37.1
2022-09-14T16:36:20.173Z,37.8
2022-09-14T16:41:38.646Z,37.6
2022-09-14T16:46:57.397Z,38.7
2022-09-14T16:52:16.038Z,37.9
2022-09-14T16:57:34.792Z,38.4
2022-09-14T17:02:53.558Z,37.9
2022-09-14T17:08:12.156Z,37.2
2022-09-14T17:13:30.867Z,38
2022-09-14T17:18:49.352Z,38.1
2022-09-14T17:24:07.867Z,38.4
2022-09-14T17:29:25.736Z,38.3
2022-09-14T17:34:44.227Z,37.5
2022-09-14T17:40:02.695Z,38.6
2022-09-14T17:45:20.849Z,38.2
2022-09-14T17:50:39.314Z,39
2022-09-14T17:55:57.916Z,38.3
2022-09-14T18:01:16.509Z,39.1
2022-09-14T18:06:34.957Z,38.3
2022-09-14T18:11:53.574Z,38.2
2022-09-14T18:17:12.260Z,37.8
2022-09-14T18:22:30.699Z,39.2
2022-09-14T18:27:48.888Z,39.1
2022-09-14T18:33:07.318Z,38.9
2022-09-14T18:38:26.068Z,39.2
2022-09-14T18:43:45.679Z,39.3
2022-09-14T18:49:04.388Z,40.1
2022-09-14T18:54:28.423Z,40
2022-09-14T18:59:46.449Z,38.9
2022-09-14T19:05:04.908Z,40.9
2022-09-14T19:10:12.460Z,40.2
2022-09-14T19:15:33.212Z,39.4
2022-09-14T19:21:07.459Z,39.7
2022-09-14T19:26:25.594Z,40.5
2022-09-14T19:31:44.440Z,41.3
2022-09-14T19:37:03.242Z,41.3
2022-09-14T19:42:24.995Z,42
2022-09-14T19:47:43.376Z,42
2022-09-14T19:53:05.544Z,40.7
2022-09-14T19:58:24.314Z,40.7
2022-09-14T20:03:42.663Z,41.1
2022-09-14T20:09:01.514Z,40.5
2022-09-14T20:14:19.635Z,41.4
2022-09-14T20:19:38.695Z,41.5
2022-09-14T20:24:56.886Z,40.9
2022-09-14T20:30:15.362Z,40.9
2022-09-14T20:35:34.040Z,41.2
2022-09-14T20:40:52.761Z,42.1
2022-09-14T20:46:11.543Z,41.2
2022-09-14T20:51:30.191Z,41.7
2022-09-14T20:56:48.077Z,42.2
2022-09-14T21:02:06.514Z,43.5
2022-09-14T21:07:25.298Z,43.6
2022-09-14T21:12:44.027Z,43.4
2022-09-14T21:18:02.480Z,42.7
2022-09-14T21:23:21.369Z,43.4
2022-09-14T21:28:39.819Z,44.3
2022-09-14T21:33:58.304Z,43.4
2022-09-14T21:39:16.676Z,44.1
2022-09-14T21:44:35.401Z,43.2
2022-09-14T21:49:54.158Z,42.8
2022-09-14T21:55:12.726Z,42.2
2022-09-14T22:00:32.012Z,43
2022-09-14T22:05:56.984Z,43.5
2022-09-14T22:11:16.851Z,43.5
2022-09-14T22:16:37.016Z,42.9
2022-09-14T22:21:55.511Z,43.1
2022-09-14T22:27:14.020Z,42.9
2022-09-14T22:32:32.482Z,43.8
2022-09-14T22:37:51.252Z,42.9
2022-09-14T22:43:09.625Z,43.4
2022-09-14T22:48:28.079Z,44.4
2022-09-14T22:53:46.837Z,43
2022-09-14T22:59:05.533Z,43
2022-09-14T23:04:24.270Z,43
2022-09-14T23:09:42.746Z,42.5
2022-09-14T23:15:01.723Z,42.4
2022-09-14T23:20:20.177Z,42.3
2022-09-14T23:25:38.935Z,42.2
2022-09-14T23:30:57.712Z,42.3
2022-09-14T23:36:16.492Z,41.8
2022-09-14T23:41:35.262Z,43.3
2022-09-14T23:46:54.053Z,42
2022-09-14T23:52:12.516Z,42.2
2022-09-14T23:57:30.994Z,42
